Flight Track Log - Related Links

Times and Time Zones

All times are in EDT time to prevent confusion due to time zone crossing. See the N2831T flight status page for this flight to view local times or setup timezone preferences in your user account.

Time Position Orientation Groundspeed Altitude Reporting Facility
EDT Latitude Longitude Course Direction KTS MPH feet Rate Location/Type
Sat 08:54:20 PM 38.1167 -78.4667 45° Northeast 78 90 1,700  Level Potomac TRACON
Sat 08:55:15 PM 38.1167 -78.4500 90° East 96 110 9,000 3,600 Climbing Potomac TRACON
Sat 08:56:15 PM 38.1500 -78.4167 38° Northeast 92 106 8,600 -250 Descending Potomac TRACON
Sat 08:57:15 PM 38.1667 -78.4000 38° Northeast 93 107 8,500 -53 Descending Potomac TRACON
Sat 08:58:09 PM 38.1667 -78.3833 90° East 94 108 8,500 157 Level Potomac TRACON
Sat 08:59:00 PM 38.2150 -78.3564 45° Northeast  Level FlightAware Approximate
Sat 08:59:10 PM 38.1833 -78.3500 58° Northeast 93 107 8,800  Level Potomac TRACON
Sat 09:01:04 PM 38.2167 -78.3000 50° Northeast 125 144 5,000 -1,194 Descending Potomac TRACON
Sat 09:02:16 PM 38.2500 -78.2500 50° Northeast 129 148 5,100  Climbing Potomac TRACON
Sat 09:03:04 PM 38.2667 -78.2167 58° Northeast 129 148 5,000 -56 Descending Potomac TRACON
Sat 09:04:04 PM 38.2833 -78.1833 57° Northeast 133 153 5,000  Level Potomac TRACON
Sat 09:05:10 PM 38.3167 -78.1500 38° Northeast 135 155 5,000  Level Potomac TRACON
Sat 09:05:58 PM 38.3333 -78.1167 57° Northeast 136 157 5,000 -52 Level Potomac TRACON
Sat 09:07:05 PM 38.3667 -78.0833 38° Northeast 133 153 4,900 -45 Descending Potomac TRACON
Sat 09:08:11 PM 38.3833 -78.0500 57° Northeast 133 153 4,900  Level Potomac TRACON
Sat 09:09:11 PM 38.4167 -78.0167 38° Northeast 133 153 4,900  Level Potomac TRACON
Sat 09:10:12 PM 38.4500 -77.9833 38° Northeast 137 158 4,900 -149 Level Potomac TRACON
Sat 09:11:12 PM 38.4667 -77.9500 57° Northeast 139 160 4,600 -450 Descending Potomac TRACON
Sat 09:12:12 PM 38.5167 -77.9167 28° Northeast 153 176 4,000 -298 Descending Potomac TRACON
Sat 09:13:13 PM 38.5500 -77.8833 38° Northeast 143 165 4,000 -50 Level Potomac TRACON
Sat 09:14:13 PM 38.5833 -77.8667 21° North 134 154 3,900 -149 Descending Potomac TRACON
Sat 09:15:14 PM 38.6167 -77.8500 21° North 139 160 3,700 -333 Descending Potomac TRACON
Sat 09:16:19 PM 38.6500 -77.8167 38° Northeast 144 166 3,200 -350 Descending Potomac TRACON
Sat 09:17:14 PM 38.6833 -77.8000 21° North 140 161 3,000 -157 Descending Potomac TRACON
Sat 09:18:14 PM 38.7167 -77.7667 38° Northeast 133 153 2,900 -48 Descending Potomac TRACON
Sat 09:19:20 PM 38.7500 -77.7500 21° North 129 148 2,900  Level Potomac TRACON
Sat 09:20:20 PM 38.7667 -77.7167 57° Northeast 123 142 2,900  Level Potomac TRACON
Sat 09:21:20 PM 38.7833 -77.6833 57° Northeast 121 139 2,900 -400 Level Potomac TRACON
Sat 09:22:20 PM 38.7833 -77.6333 90° East 128 147 2,100 -842 Descending Potomac TRACON
Sat 09:23:14 PM 38.7833 -77.6000 90° East 100 115 1,300 -556 Descending Potomac TRACON
Sat 09:24:08 PM 38.7833 -77.5667 90° East 77 89 1,100 -158 Descending Potomac TRACON
Sat 09:25:08 PM 38.7667 -77.5500 142° Southeast 78 90 1,000 -200 Descending Potomac TRACON
Sat 09:26:08 PM 38.7500 -77.5333 142° Southeast 79 91 700 -300 Descending Potomac TRACON
Sat 09:28:00 PM 38.7210 -77.5151 78° East  Level Estimated
Sat 09:35:00 PM 38.7210 -77.5151 78° East  Level Estimated
Sat 09:36:00 PM 38.7210 -77.5151 78° East  Level Estimated
Sat 09:37:00 PM 38.7210 -77.5151 78° East  Level Estimated
Sat 09:38:00 PM 38.7210 -77.5151 78° East  Level Estimated
Sat 09:39:00 PM 38.7210 -77.5151 78° East  Level Estimated
Sat 09:40:00 PM 38.7210 -77.5151 78° East  Level Estimated
Sat 09:41:00 PM 38.7210 -77.5151 78° East  Level Estimated

Login

Don't have an account? Register now (free) for customized features, flight alerts, and more!